Adrian, Ohio
Current Conditions -  °F | °C
As of 8:53 AM on Monday 26 Jan 2015 (Local Time) from KFDY Reporting Station
Overcast Overcast  
Wind Chill: -18°   Ceiling: 1100
Heat Index: -10°   Visibility: 9mi
Dew Point: -13°   Wind: 12mph
Humidity: 77%   Direction: 360°N
Pressure: 29.88"   Gusts: NA
Location:  41°N, 83.32°W
Report Text: KFDY 261353Z AUTO 36010KT 9SM OVC011 M10/M13 A2988 RMK AO2 SLP129 T11001133
Loading
Personal Weather Stations






























Interactive Weather Map New forecast layout! Learn more

10-Day Weather Forecast

Advertisements
Track Severe Weather on mobile